createdAt,value
2023-06-19T00:00:13.637Z,56.98
2023-06-19T00:01:45.339Z,58.16
2023-06-19T00:03:17.024Z,58.22
2023-06-19T00:04:50.032Z,58.05
2023-06-19T00:06:21.636Z,57.68
2023-06-19T00:07:53.355Z,57.28
2023-06-19T00:09:25.078Z,57.97
2023-06-19T00:10:56.725Z,58.35
2023-06-19T00:12:28.328Z,58.54
2023-06-19T00:14:00.077Z,59.05
2023-06-19T00:15:31.710Z,59.92
2023-06-19T00:17:03.644Z,59.09
2023-06-19T00:18:40.894Z,59.85
2023-06-19T00:20:14.670Z,59.42
2023-06-19T00:21:47.012Z,59.77
2023-06-19T00:23:18.644Z,60.04
2023-06-19T00:24:50.368Z,59.93
2023-06-19T00:26:26.419Z,59.42
2023-06-19T00:27:58.137Z,59.85
2023-06-19T00:29:29.842Z,59.97
2023-06-19T00:31:01.517Z,59.48
2023-06-19T00:32:33.154Z,60.53
2023-06-19T00:34:04.795Z,59.99
2023-06-19T00:35:37.844Z,59.93
2023-06-19T00:37:09.756Z,60.16
2023-06-19T00:38:41.464Z,59.63
2023-06-19T00:43:53.996Z,60.45
2023-06-19T00:45:26.459Z,60.21
2023-06-19T00:47:00.622Z,61.21
2023-06-19T00:48:33.080Z,60.54
2023-06-19T00:50:05.527Z,60.84
2023-06-19T00:51:38.700Z,61.01
2023-06-19T00:53:10.384Z,61.66
2023-06-19T00:54:42.003Z,61.90
2023-06-19T00:56:13.638Z,62.97
2023-06-19T00:57:45.286Z,62.51
2023-06-19T00:59:20.828Z,62.58
2023-06-19T01:01:03.813Z,63.32
2023-06-19T01:02:39.888Z,62.15
2023-06-19T01:04:11.703Z,62.26
2023-06-19T01:05:43.738Z,62.05
2023-06-19T01:07:16.839Z,62.68
2023-06-19T01:08:52.353Z,62.65
2023-06-19T01:10:26.397Z,62.55
2023-06-19T01:12:00.181Z,62.44
2023-06-19T01:13:34.761Z,63.69
2023-06-19T01:15:07.611Z,65.07
2023-06-19T01:16:39.361Z,65.75
2023-06-19T01:18:12.429Z,65.10
2023-06-19T01:19:44.185Z,63.98
2023-06-19T01:21:16.376Z,63.23
2023-06-19T01:22:49.337Z,63.71
2023-06-19T01:24:21.099Z,63.99
2023-06-19T01:25:52.988Z,64.44
2023-06-19T01:27:24.847Z,65.02
2023-06-19T01:28:56.696Z,66.35
2023-06-19T01:30:28.555Z,66.25
2023-06-19T01:32:06.377Z,67.84
2023-06-19T01:33:38.014Z,66.43
2023-06-19T01:35:12.596Z,66.12
2023-06-19T01:36:44.349Z,66.72
2023-06-19T01:38:18.052Z,67.44
2023-06-19T01:39:49.859Z,66.55
2023-06-19T01:41:21.660Z,66.02
2023-06-19T01:42:53.680Z,65.56
2023-06-19T01:44:25.425Z,66.13
2023-06-19T01:45:57.070Z,65.90
2023-06-19T01:47:28.767Z,66.61
2023-06-19T01:49:00.478Z,65.89
2023-06-19T01:50:32.108Z,66.13
2023-06-19T01:52:04.290Z,66.84
2023-06-19T01:53:37.663Z,67.50
2023-06-19T01:55:10.588Z,68.44
2023-06-19T01:56:42.361Z,67.46
2023-06-19T01:58:14.039Z,69.35
2023-06-19T01:59:45.664Z,70.22
2023-06-19T02:01:17.490Z,69.85
2023-06-19T02:02:49.145Z,67.96
2023-06-19T02:04:20.868Z,69.97
2023-06-19T02:05:52.695Z,68.77
2023-06-19T02:07:24.496Z,69.28
2023-06-19T02:08:57.660Z,68.31
2023-06-19T02:10:29.475Z,67.29
2023-06-19T02:12:01.177Z,68.54
2023-06-19T02:13:32.910Z,66.03
2023-06-19T02:15:05.329Z,66.42
2023-06-19T02:16:36.992Z,66.47
2023-06-19T02:18:09.493Z,68.98
2023-06-19T02:19:41.159Z,66.47
2023-06-19T02:21:12.861Z,67.77
2023-06-19T02:22:44.664Z,65.70
2023-06-19T02:24:17.683Z,68.46
2023-06-19T02:25:49.389Z,70.30
2023-06-19T02:27:21.062Z,67.39
2023-06-19T02:28:52.844Z,66.62
2023-06-19T02:30:24.801Z,67.28
2023-06-19T02:31:56.600Z,68.18
2023-06-19T02:33:28.266Z,67.11
2023-06-19T02:34:59.944Z,68.35
2023-06-19T02:36:31.656Z,70.86
2023-06-19T02:38:05.667Z,71.28
2023-06-19T02:39:39.138Z,70.54
2023-06-19T02:41:10.776Z,70.37
2023-06-19T02:42:42.499Z,71.25
2023-06-19T02:44:14.869Z,71.41
2023-06-19T02:45:46.631Z,70.38
2023-06-19T02:47:18.367Z,71.06
2023-06-19T02:48:50.058Z,70.62
2023-06-19T02:50:22.082Z,70.82
2023-06-19T02:51:54.018Z,69.78
2023-06-19T02:53:25.688Z,68.76
2023-06-19T02:57:18.059Z,69.39
2023-06-19T02:58:51.103Z,69.23
2023-06-19T03:00:23.131Z,68.92
2023-06-19T03:01:55.103Z,67.84
2023-06-19T03:03:26.953Z,68.20
2023-06-19T03:04:58.751Z,67.10
2023-06-19T03:06:30.500Z,67.12
2023-06-19T03:08:02.323Z,66.90
2023-06-19T03:09:33.984Z,66.95
2023-06-19T03:11:06.310Z,67.11
2023-06-19T03:12:38.029Z,65.95
2023-06-19T03:14:11.082Z,67.19
2023-06-19T03:15:43.025Z,67.44
2023-06-19T03:17:15.317Z,67.47
2023-06-19T03:18:47.806Z,67.48
2023-06-19T03:20:21.984Z,67.61
2023-06-19T03:21:54.046Z,66.29
2023-06-19T03:23:25.699Z,66.25
2023-06-19T03:24:57.420Z,66.56
2023-06-19T03:26:29.195Z,66.05
2023-06-19T03:28:00.919Z,65.53
2023-06-19T03:29:34.004Z,66.35
2023-06-19T03:31:05.659Z,66.52
2023-06-19T03:32:37.474Z,66.45
2023-06-19T03:34:09.159Z,66.65
2023-06-19T03:35:41.829Z,66.54
2023-06-19T03:37:14.315Z,66.16
2023-06-19T03:38:46.156Z,66.08
2023-06-19T03:40:18.222Z,66.08
2023-06-19T03:41:49.925Z,66.37
2023-06-19T03:43:21.654Z,66.73
2023-06-19T03:44:54.748Z,66.89
2023-06-19T03:46:26.610Z,67.52
2023-06-19T03:47:58.448Z,66.57
2023-06-19T03:49:30.203Z,66.83
2023-06-19T03:51:02.125Z,67.84
2023-06-19T03:52:34.315Z,67.29
2023-06-19T03:54:06.148Z,68.24
2023-06-19T03:55:37.868Z,68.58
2023-06-19T03:57:09.934Z,69.32
2023-06-19T03:58:41.661Z,69.32
2023-06-19T04:00:15.973Z,68.64
2023-06-19T04:01:47.943Z,69.49
2023-06-19T04:03:19.835Z,69.99
2023-06-19T04:04:51.565Z,69.14
2023-06-19T04:06:23.945Z,69.32
2023-06-19T04:07:55.650Z,69.05
2023-06-19T04:09:27.338Z,68.63
2023-06-19T04:10:59.380Z,68.69
2023-06-19T04:12:31.075Z,67.78
2023-06-19T04:14:02.933Z,67.70
2023-06-19T04:15:37.010Z,67.71
2023-06-19T04:17:08.916Z,70.01
2023-06-19T04:18:40.658Z,69.07
2023-06-19T04:20:13.311Z,70.25
2023-06-19T04:21:44.987Z,69.59
2023-06-19T04:23:16.794Z,71.00
2023-06-19T04:24:48.517Z,73.71
2023-06-19T04:26:22.412Z,70.01
2023-06-19T04:27:54.074Z,73.49
2023-06-19T04:29:25.745Z,73.63
2023-06-19T04:31:01.725Z,73.13
2023-06-19T04:32:33.631Z,72.44
2023-06-19T04:34:05.847Z,73.73
2023-06-19T04:35:43.603Z,71.13
2023-06-19T04:37:20.134Z,75.36
2023-06-19T04:38:54.672Z,74.55
2023-06-19T04:40:26.929Z,76.68
2023-06-19T04:41:58.949Z,74.09
2023-06-19T04:43:30.601Z,75.25
2023-06-19T04:45:02.373Z,71.33
2023-06-19T04:46:36.223Z,75.31
2023-06-19T04:48:08.058Z,76.36
2023-06-19T04:49:40.106Z,73.97
2023-06-19T04:51:11.980Z,75.03
2023-06-19T04:52:43.630Z,75.19
2023-06-19T04:54:15.513Z,74.86
2023-06-19T04:55:47.546Z,74.71
2023-06-19T04:57:19.199Z,75.41
2023-06-19T04:58:52.355Z,75.66
2023-06-19T05:00:25.122Z,77.32
2023-06-19T05:01:59.034Z,77.94
2023-06-19T05:03:30.880Z,77.84
2023-06-19T05:05:04.634Z,76.54
2023-06-19T05:06:36.401Z,79.12
2023-06-19T05:08:08.148Z,79.01
2023-06-19T05:09:39.829Z,77.08
2023-06-19T05:11:11.468Z,77.01
2023-06-19T05:12:43.256Z,79.38
2023-06-19T05:14:17.631Z,79.38
2023-06-19T05:15:49.869Z,78.43
2023-06-19T05:17:23.083Z,77.95
2023-06-19T05:18:54.848Z,77.91
2023-06-19T05:20:26.688Z,80.56
2023-06-19T05:21:58.589Z,80.14
2023-06-19T05:23:30.325Z,80.75
2023-06-19T05:25:01.984Z,78.10
2023-06-19T05:26:33.817Z,75.40
2023-06-19T05:28:06.237Z,79.67
2023-06-19T05:29:38.174Z,81.36
2023-06-19T05:31:10.207Z,82.35
2023-06-19T05:32:43.307Z,79.04
2023-06-19T05:34:15.202Z,77.15
2023-06-19T05:35:53.305Z,76.38
2023-06-19T05:37:25.047Z,75.48
2023-06-19T05:38:56.788Z,79.22
2023-06-19T05:40:29.848Z,79.02
2023-06-19T05:42:02.918Z,78.96
2023-06-19T05:43:34.685Z,77.27
2023-06-19T05:45:07.337Z,78.82
2023-06-19T05:46:42.456Z,79.38
2023-06-19T05:48:18.849Z,81.53
2023-06-19T05:49:53.922Z,79.09
2023-06-19T05:51:33.926Z,78.38
2023-06-19T05:53:27.278Z,79.36
2023-06-19T05:55:04.399Z,80.62
2023-06-19T05:56:39.120Z,81.84
2023-06-19T05:58:11.092Z,77.63
2023-06-19T05:59:43.161Z,81.56
2023-06-19T06:01:17.170Z,79.84
2023-06-19T06:02:49.063Z,80.28
2023-06-19T06:04:23.180Z,81.28
2023-06-19T06:06:41.712Z,81.06
2023-06-19T06:08:13.441Z,80.28
2023-06-19T06:09:45.130Z,79.26
2023-06-19T06:11:16.780Z,78.26
2023-06-19T06:12:49.081Z,78.62
2023-06-19T06:14:20.931Z,82.18
2023-06-19T06:15:52.634Z,79.02
2023-06-19T06:17:24.587Z,78.82
2023-06-19T06:18:56.480Z,83.02
2023-06-19T06:20:29.839Z,78.55
2023-06-19T06:22:01.517Z,78.28
2023-06-19T06:23:33.244Z,78.60
2023-06-19T06:25:05.611Z,78.69
2023-06-19T06:26:38.126Z,79.58
2023-06-19T06:28:09.858Z,80.04
2023-06-19T06:29:41.508Z,79.74
2023-06-19T06:31:13.171Z,77.35
2023-06-19T06:32:44.978Z,80.63
2023-06-19T06:34:17.100Z,79.15
2023-06-19T06:35:50.226Z,78.85
2023-06-19T06:37:32.284Z,79.42
2023-06-19T06:39:04.084Z,79.72
2023-06-19T06:40:35.839Z,78.68
2023-06-19T06:42:07.604Z,77.19
2023-06-19T06:43:43.721Z,75.73
2023-06-19T06:45:15.494Z,78.11
2023-06-19T06:46:47.384Z,77.49
2023-06-19T06:48:19.114Z,76.18
2023-06-19T06:49:51.466Z,78.72
2023-06-19T06:51:25.747Z,77.49
2023-06-19T06:52:57.407Z,75.93
2023-06-19T06:54:29.070Z,76.76
2023-06-19T06:56:01.165Z,75.63
2023-06-19T06:57:32.923Z,75.00
2023-06-19T06:59:04.562Z,76.80
2023-06-19T07:00:36.274Z,76.34
2023-06-19T07:02:08.130Z,75.94
2023-06-19T07:03:40.623Z,74.60
2023-06-19T07:05:12.467Z,74.95
2023-06-19T07:06:45.652Z,73.44
2023-06-19T07:08:17.317Z,73.57
2023-06-19T07:09:49.118Z,77.98
2023-06-19T07:11:20.798Z,77.24
2023-06-19T07:12:52.576Z,74.60
2023-06-19T07:14:24.312Z,78.46
2023-06-19T07:15:56.081Z,77.71
2023-06-19T07:17:27.934Z,76.25
2023-06-19T07:18:59.765Z,75.50
2023-06-19T07:20:31.445Z,74.44
2023-06-19T07:22:05.316Z,73.75
2023-06-19T07:23:38.051Z,74.69
2023-06-19T07:25:10.892Z,75.13
2023-06-19T07:26:42.629Z,73.91
2023-06-19T07:28:14.310Z,74.07
2023-06-19T07:29:46.038Z,74.37
2023-06-19T07:31:17.695Z,74.72
2023-06-19T07:32:49.673Z,73.15
2023-06-19T07:34:21.476Z,72.39
2023-06-19T07:35:53.189Z,74.11
2023-06-19T07:37:26.392Z,72.77
2023-06-19T07:38:58.106Z,73.85
2023-06-19T07:40:29.768Z,75.81
2023-06-19T07:42:01.490Z,73.35
2023-06-19T07:43:33.263Z,72.98
2023-06-19T07:45:06.125Z,73.56
2023-06-19T07:46:37.959Z,71.00
2023-06-19T07:48:09.691Z,71.34
2023-06-19T07:49:41.461Z,71.74
2023-06-19T07:51:13.333Z,70.12
2023-06-19T07:52:46.345Z,71.83
2023-06-19T07:54:18.168Z,73.23
2023-06-19T07:55:49.913Z,71.55
2023-06-19T07:57:21.880Z,72.23
2023-06-19T07:58:53.569Z,71.86
2023-06-19T08:00:25.938Z,71.70
2023-06-19T08:01:57.952Z,71.26
2023-06-19T08:03:29.889Z,71.42
2023-06-19T08:05:01.709Z,71.88
2023-06-19T08:06:33.488Z,70.52
2023-06-19T08:08:06.655Z,69.30
2023-06-19T08:09:38.316Z,69.66
2023-06-19T08:11:10.025Z,69.48
2023-06-19T08:12:42.115Z,68.41
2023-06-19T08:14:13.865Z,69.78
2023-06-19T08:15:46.433Z,69.29
2023-06-19T08:17:18.248Z,68.13
2023-06-19T08:18:49.973Z,68.41
2023-06-19T08:20:21.779Z,69.14
2023-06-19T08:21:56.165Z,67.94
2023-06-19T08:23:29.265Z,67.54
2023-06-19T08:25:01.001Z,65.72
2023-06-19T08:26:32.788Z,66.08
2023-06-19T08:28:05.926Z,67.47
2023-06-19T08:31:35.101Z,66.48
2023-06-19T08:33:06.873Z,67.69
2023-06-19T08:34:39.254Z,68.08
2023-06-19T08:36:10.894Z,67.36
2023-06-19T08:37:42.548Z,65.65
2023-06-19T08:39:15.642Z,65.70
2023-06-19T08:40:47.338Z,63.73
2023-06-19T08:42:19.036Z,64.19
2023-06-19T08:43:50.630Z,64.42
2023-06-19T08:45:22.344Z,65.64
2023-06-19T08:46:53.998Z,63.85
2023-06-19T08:48:25.627Z,62.96
2023-06-19T08:49:57.314Z,62.60
2023-06-19T08:51:29.653Z,62.50
2023-06-19T08:53:01.351Z,67.04
2023-06-19T08:54:34.483Z,62.66
2023-06-19T08:56:06.162Z,60.92
2023-06-19T08:57:38.738Z,61.85
2023-06-19T08:59:11.445Z,62.36
2023-06-19T09:00:48.127Z,62.82
2023-06-19T09:02:20.076Z,64.41
2023-06-19T09:03:53.707Z,64.49
2023-06-19T09:05:26.512Z,62.98
2023-06-19T09:06:59.561Z,62.81
2023-06-19T09:08:31.695Z,62.78
2023-06-19T09:10:17.108Z,62.45
2023-06-19T09:11:58.781Z,64.70
2023-06-19T09:13:30.808Z,63.48
2023-06-19T09:15:02.434Z,62.06
2023-06-19T09:16:38.868Z,61.91
2023-06-19T09:18:11.382Z,61.64
2023-06-19T09:19:48.602Z,61.25
2023-06-19T09:21:22.952Z,60.58
2023-06-19T09:22:55.895Z,60.73
2023-06-19T09:24:34.553Z,61.79
2023-06-19T09:26:07.877Z,60.82
2023-06-19T09:27:39.522Z,58.16
2023-06-19T09:29:15.354Z,59.82
2023-06-19T09:30:58.079Z,61.18
2023-06-19T09:32:29.939Z,59.66
2023-06-19T09:34:01.705Z,58.71
2023-06-19T09:35:33.412Z,56.35
2023-06-19T09:37:05.919Z,58.56
2023-06-19T09:38:44.233Z,54.41
2023-06-19T09:40:16.104Z,55.39
2023-06-19T09:41:49.163Z,55.88
2023-06-19T09:43:24.324Z,55.92
2023-06-19T09:44:56.872Z,55.14
2023-06-19T09:46:33.237Z,54.28
2023-06-19T09:48:05.326Z,56.15
2023-06-19T09:49:36.943Z,56.50
2023-06-19T09:51:11.576Z,55.53
2023-06-19T09:52:44.561Z,55.89
2023-06-19T09:54:16.333Z,57.65
2023-06-19T09:55:48.918Z,58.13
2023-06-19T09:57:21.930Z,56.16
2023-06-19T09:58:54.730Z,52.33
2023-06-19T10:00:32.212Z,52.40
2023-06-19T10:02:07.496Z,53.79
2023-06-19T10:03:41.528Z,53.07
2023-06-19T10:05:15.234Z,55.23
2023-06-19T10:06:47.863Z,54.83
2023-06-19T10:08:29.217Z,56.59
2023-06-19T10:10:02.219Z,55.18
2023-06-19T10:11:45.563Z,56.52
2023-06-19T10:13:18.933Z,54.60
2023-06-19T10:14:51.300Z,54.73
2023-06-19T10:16:23.312Z,55.41
2023-06-19T10:18:00.252Z,57.48
2023-06-19T10:19:31.929Z,57.01
2023-06-19T10:21:03.637Z,57.02
2023-06-19T10:22:35.289Z,57.30
2023-06-19T10:24:07.043Z,57.02
2023-06-19T10:25:40.053Z,57.71
2023-06-19T10:27:13.396Z,56.40
2023-06-19T10:28:49.385Z,54.70
2023-06-19T10:30:21.676Z,54.41
2023-06-19T10:31:53.732Z,55.94
2023-06-19T10:33:26.587Z,56.57
2023-06-19T10:34:58.229Z,56.02
2023-06-19T10:36:29.893Z,56.23
2023-06-19T10:38:01.506Z,56.66
2023-06-19T10:39:33.532Z,57.49
2023-06-19T10:41:05.149Z,56.84
2023-06-19T10:42:37.440Z,56.69
2023-06-19T10:44:13.544Z,56.29
2023-06-19T10:45:48.371Z,54.83
2023-06-19T10:47:20.068Z,53.95
2023-06-19T10:48:51.706Z,51.70
2023-06-19T10:50:24.216Z,52.08
2023-06-19T10:52:00.049Z,53.19
2023-06-19T10:53:32.652Z,52.47
2023-06-19T10:55:05.647Z,50.35
2023-06-19T10:56:37.616Z,50.21
2023-06-19T10:58:09.295Z,49.95
2023-06-19T10:59:42.274Z,49.33
2023-06-19T11:01:13.995Z,50.16
2023-06-19T11:02:45.741Z,48.31
2023-06-19T11:04:17.641Z,47.72
2023-06-19T11:05:49.626Z,50.24
2023-06-19T11:07:21.338Z,44.96
2023-06-19T11:08:55.731Z,48.69
2023-06-19T11:10:28.982Z,48.58
2023-06-19T11:12:02.131Z,46.92
2023-06-19T11:13:33.741Z,50.55
2023-06-19T11:15:08.168Z,50.37
2023-06-19T11:16:42.779Z,51.42
2023-06-19T11:18:15.836Z,50.71
2023-06-19T11:19:47.485Z,49.23
2023-06-19T11:21:19.145Z,51.92
2023-06-19T11:22:55.863Z,50.38
2023-06-19T11:24:27.919Z,50.84
2023-06-19T11:26:03.537Z,51.37
2023-06-19T11:27:36.182Z,50.75
2023-06-19T11:29:17.460Z,51.02
2023-06-19T11:30:58.476Z,52.31
2023-06-19T11:32:34.774Z,54.75
2023-06-19T11:34:07.241Z,52.13
2023-06-19T11:35:40.308Z,51.61
2023-06-19T11:37:15.323Z,51.85
2023-06-19T11:38:47.052Z,52.13
2023-06-19T11:40:22.322Z,52.37
2023-06-19T11:41:55.097Z,50.86
2023-06-19T11:43:27.113Z,50.23
2023-06-19T11:45:02.611Z,47.86
2023-06-19T11:46:35.666Z,49.26
2023-06-19T11:48:07.567Z,48.94
2023-06-19T11:49:39.289Z,47.26
2023-06-19T11:51:11.068Z,50.60
2023-06-19T11:52:43.460Z,46.53
2023-06-19T11:54:18.960Z,46.02
2023-06-19T11:55:50.701Z,45.81
2023-06-19T11:57:22.332Z,47.27
2023-06-19T11:58:54.002Z,44.92
2023-06-19T12:00:26.418Z,43.25
2023-06-19T12:02:00.676Z,43.10
2023-06-19T12:03:32.517Z,42.59
2023-06-19T12:05:04.942Z,43.29
2023-06-19T12:06:36.849Z,42.48
2023-06-19T12:08:08.485Z,43.07
2023-06-19T12:09:40.564Z,42.49
2023-06-19T12:11:14.090Z,42.59
2023-06-19T12:12:45.802Z,41.56
2023-06-19T12:14:17.416Z,41.81
2023-06-19T12:15:49.006Z,41.39
2023-06-19T12:17:22.099Z,41.54
2023-06-19T12:18:54.176Z,41.35
2023-06-19T12:20:26.596Z,41.80
2023-06-19T12:22:00.165Z,42.21
2023-06-19T12:23:31.784Z,42.95
2023-06-19T12:25:03.981Z,42.34
2023-06-19T12:26:37.926Z,41.94
2023-06-19T12:28:10.326Z,42.15
2023-06-19T12:29:41.923Z,42.33
2023-06-19T12:31:13.612Z,41.55
2023-06-19T12:32:50.728Z,41.76
2023-06-19T12:34:30.458Z,41.66
2023-06-19T12:36:03.048Z,42.43
2023-06-19T12:37:34.676Z,42.49
2023-06-19T12:39:14.276Z,42.65
2023-06-19T12:40:46.134Z,42.26
2023-06-19T12:42:17.914Z,42.10
2023-06-19T12:43:49.575Z,41.56
2023-06-19T12:45:21.193Z,41.66
2023-06-19T12:46:53.891Z,42.62
2023-06-19T12:48:27.177Z,42.23
2023-06-19T12:49:59.043Z,41.73
2023-06-19T12:51:30.771Z,43.36
2023-06-19T12:53:02.469Z,41.98
2023-06-19T12:54:34.168Z,42.89
2023-06-19T12:56:09.753Z,41.22
2023-06-19T12:57:45.668Z,41.16
2023-06-19T12:59:17.335Z,41.03
2023-06-19T13:00:49.032Z,40.47
2023-06-19T13:02:20.711Z,39.58
2023-06-19T13:03:53.853Z,40.01
2023-06-19T13:05:25.543Z,40.96
2023-06-19T13:06:57.171Z,39.71
2023-06-19T13:08:28.889Z,40.29
2023-06-19T13:10:00.516Z,39.86
2023-06-19T13:11:32.266Z,40.15
2023-06-19T13:13:03.935Z,40.48
2023-06-19T13:14:35.632Z,38.94
2023-06-19T13:16:07.351Z,38.82
2023-06-19T13:17:39.293Z,39.94
2023-06-19T13:19:12.284Z,38.79
2023-06-19T13:20:45.978Z,41.57
2023-06-19T13:22:17.958Z,41.18
2023-06-19T13:23:50.242Z,40.76
2023-06-19T13:25:22.055Z,41.18
2023-06-19T13:26:53.702Z,41.65
2023-06-19T13:28:25.401Z,42.41
2023-06-19T13:29:57.076Z,41.06
2023-06-19T13:31:28.859Z,41.29
2023-06-19T13:33:03.189Z,42.46
2023-06-19T13:34:37.771Z,40.75
2023-06-19T13:36:09.402Z,39.84
2023-06-19T13:37:41.143Z,39.50
2023-06-19T13:39:12.980Z,40.87
2023-06-19T13:40:44.613Z,39.53
2023-06-19T13:42:16.861Z,39.90
2023-06-19T13:43:48.674Z,37.95
2023-06-19T13:45:20.324Z,38.80
2023-06-19T13:46:52.005Z,39.93
2023-06-19T13:48:23.853Z,41.38
2023-06-19T13:49:56.910Z,41.33
2023-06-19T13:51:28.995Z,43.09
2023-06-19T13:53:00.742Z,42.38
2023-06-19T13:54:32.419Z,44.65
2023-06-19T13:56:07.206Z,43.84
2023-06-19T13:57:39.184Z,43.63
2023-06-19T13:59:10.904Z,42.32
2023-06-19T14:00:42.722Z,38.95
2023-06-19T14:02:14.428Z,40.65
2023-06-19T14:03:46.325Z,41.37
2023-06-19T14:05:19.308Z,41.00
2023-06-19T14:06:51.114Z,40.94
2023-06-19T14:08:22.778Z,40.07
2023-06-19T14:09:55.522Z,41.29
2023-06-19T14:11:27.122Z,40.44
2023-06-19T14:12:59.375Z,39.57
2023-06-19T14:14:31.187Z,38.84
2023-06-19T14:16:03.030Z,39.51
2023-06-19T14:17:34.794Z,40.54
2023-06-19T14:19:06.453Z,39.68
2023-06-19T14:20:39.547Z,39.92
2023-06-19T14:22:11.497Z,41.80
2023-06-19T14:23:45.215Z,40.73
2023-06-19T14:25:17.015Z,37.58
2023-06-19T14:26:48.695Z,40.42
2023-06-19T14:28:20.380Z,39.74
2023-06-19T14:29:51.995Z,39.94
2023-06-19T14:31:23.888Z,39.29
2023-06-19T14:32:55.574Z,41.86
2023-06-19T14:34:27.270Z,44.51
2023-06-19T14:36:00.664Z,44.00
2023-06-19T14:37:32.483Z,40.88
2023-06-19T14:39:04.297Z,42.93
2023-06-19T14:40:35.928Z,41.20
2023-06-19T14:42:07.903Z,38.46
2023-06-19T14:43:39.794Z,38.12
2023-06-19T14:45:11.890Z,36.99
2023-06-19T14:46:43.853Z,37.43
2023-06-19T14:48:15.513Z,38.24
2023-06-19T14:49:47.149Z,40.53
2023-06-19T14:51:20.459Z,42.16
2023-06-19T14:52:52.184Z,43.52
2023-06-19T14:54:24.009Z,44.29
2023-06-19T14:55:55.644Z,42.95
2023-06-19T14:57:27.668Z,41.23
2023-06-19T14:58:59.357Z,38.82
2023-06-19T15:00:31.171Z,39.97
2023-06-19T15:02:03.939Z,39.43
2023-06-19T15:03:36.278Z,39.73
2023-06-19T15:05:08.895Z,38.85
2023-06-19T15:06:42.060Z,40.09
2023-06-19T15:08:13.647Z,39.97
2023-06-19T15:09:45.274Z,40.96
2023-06-19T15:11:16.903Z,42.98
2023-06-19T15:12:48.562Z,43.17
2023-06-19T15:14:20.689Z,42.89
2023-06-19T15:15:52.325Z,43.74
2023-06-19T15:17:23.970Z,44.10
2023-06-19T15:18:55.689Z,43.72
2023-06-19T15:20:27.392Z,43.18
2023-06-19T15:22:00.373Z,45.05
2023-06-19T15:23:32.209Z,44.45
2023-06-19T15:25:04.017Z,44.31
2023-06-19T15:26:39.132Z,44.91
2023-06-19T15:28:11.748Z,45.11
2023-06-19T15:29:43.382Z,44.56
2023-06-19T15:31:16.853Z,45.29
2023-06-19T15:32:48.499Z,45.19
2023-06-19T15:34:20.134Z,44.93
2023-06-19T15:35:52.110Z,45.42
2023-06-19T15:37:25.159Z,46.41
2023-06-19T15:38:56.903Z,46.51
2023-06-19T15:40:28.608Z,45.77
2023-06-19T15:42:00.390Z,45.76
2023-06-19T15:43:32.102Z,47.47
2023-06-19T15:45:04.030Z,48.39
2023-06-19T15:46:35.737Z,49.27
2023-06-19T15:48:07.463Z,49.60
2023-06-19T15:49:39.240Z,50.29
2023-06-19T15:51:11.354Z,51.21
2023-06-19T15:52:44.413Z,51.17
2023-06-19T15:54:16.051Z,50.27
2023-06-19T15:55:47.651Z,49.61
2023-06-19T15:57:19.386Z,48.88
2023-06-19T15:58:52.113Z,49.21
2023-06-19T16:00:24.652Z,49.11
2023-06-19T16:01:56.447Z,48.50
2023-06-19T16:03:31.323Z,49.00
2023-06-19T16:05:03.624Z,49.60
2023-06-19T16:06:35.369Z,48.79
2023-06-19T16:08:08.329Z,48.23
2023-06-19T16:09:50.313Z,48.42
2023-06-19T16:11:26.557Z,48.51
2023-06-19T16:12:58.258Z,47.79
2023-06-19T16:14:29.888Z,47.67
2023-06-19T16:16:01.676Z,48.19
2023-06-19T16:17:33.883Z,47.89
2023-06-19T16:19:05.587Z,47.99
2023-06-19T16:20:37.284Z,47.48
2023-06-19T16:22:09.000Z,47.23
2023-06-19T16:23:42.104Z,48.45
2023-06-19T16:25:13.810Z,48.26
2023-06-19T16:26:45.425Z,48.29
2023-06-19T16:28:17.083Z,47.77
2023-06-19T16:29:48.748Z,47.17
2023-06-19T16:31:20.417Z,47.67
2023-06-19T16:32:52.115Z,47.36
2023-06-19T16:34:23.804Z,48.24
2023-06-19T16:35:58.432Z,47.02
2023-06-19T16:37:30.123Z,46.35
2023-06-19T16:39:03.577Z,48.06
2023-06-19T16:40:35.356Z,47.01
2023-06-19T16:42:07.344Z,45.74
2023-06-19T16:43:39.035Z,46.26
2023-06-19T16:45:11.274Z,46.94
2023-06-19T16:46:42.914Z,46.41
2023-06-19T16:48:14.718Z,46.35
2023-06-19T16:49:46.413Z,47.61
2023-06-19T16:51:18.320Z,47.62
2023-06-19T16:52:50.479Z,46.78
2023-06-19T16:54:23.710Z,46.74
2023-06-19T16:55:57.027Z,47.28
2023-06-19T16:57:30.132Z,47.06
2023-06-19T16:59:02.957Z,46.20
2023-06-19T17:00:34.818Z,46.21
2023-06-19T17:02:06.636Z,47.13
2023-06-19T17:03:38.457Z,48.35
2023-06-19T17:05:10.321Z,48.16
2023-06-19T17:06:42.005Z,48.30
2023-06-19T17:08:13.956Z,47.07
2023-06-19T17:09:49.696Z,47.32
2023-06-19T17:11:21.446Z,46.01
2023-06-19T17:12:53.178Z,48.61
2023-06-19T17:14:24.860Z,46.51
2023-06-19T17:15:59.737Z,47.11
2023-06-19T17:17:32.406Z,47.99
2023-06-19T17:19:06.676Z,48.51
2023-06-19T17:20:38.723Z,48.56
2023-06-19T17:22:10.433Z,48.91
2023-06-19T17:23:42.102Z,48.41
2023-06-19T17:25:15.400Z,48.99
2023-06-19T17:26:47.111Z,48.16
2023-06-19T17:28:18.751Z,47.29
2023-06-19T17:29:50.406Z,48.12
2023-06-19T17:31:22.032Z,47.39
2023-06-19T17:32:53.665Z,46.35
2023-06-19T17:34:25.340Z,47.52
2023-06-19T17:35:56.940Z,53.48
2023-06-19T17:37:28.628Z,52.27
2023-06-19T17:39:00.259Z,54.16
2023-06-19T17:40:33.276Z,55.15
2023-06-19T17:42:07.547Z,54.45
2023-06-19T17:43:39.228Z,54.81
2023-06-19T17:45:12.350Z,54.19
2023-06-19T17:46:44.909Z,55.19
2023-06-19T17:48:16.642Z,54.40
2023-06-19T17:49:51.355Z,55.84
2023-06-19T17:51:24.019Z,56.94
2023-06-19T17:52:55.663Z,56.81
2023-06-19T17:54:27.359Z,56.60
2023-06-19T17:56:04.959Z,56.31
2023-06-19T17:57:36.831Z,55.41
2023-06-19T17:59:08.629Z,55.40
2023-06-19T18:00:40.287Z,55.89
2023-06-19T18:02:12.046Z,55.75
2023-06-19T18:03:43.985Z,55.12
2023-06-19T18:05:15.973Z,54.80
2023-06-19T18:06:47.780Z,55.23
2023-06-19T18:08:19.474Z,54.66
2023-06-19T18:09:51.218Z,54.24
2023-06-19T18:11:24.294Z,53.69
2023-06-19T18:12:55.894Z,53.95
2023-06-19T18:14:27.793Z,54.38
2023-06-19T18:16:11.239Z,54.56
2023-06-19T18:17:44.371Z,55.08
2023-06-19T18:19:16.020Z,54.90
2023-06-19T18:20:47.959Z,55.36
2023-06-19T18:22:19.685Z,55.64
2023-06-19T18:23:51.344Z,58.73
2023-06-19T18:25:22.975Z,58.30
2023-06-19T18:26:55.945Z,59.45
2023-06-19T18:28:27.753Z,59.47
2023-06-19T18:30:00.892Z,59.48
2023-06-19T18:31:35.015Z,59.09
2023-06-19T18:33:06.759Z,58.84
2023-06-19T18:34:38.644Z,55.12
2023-06-19T18:36:10.331Z,55.49
2023-06-19T18:37:41.993Z,55.45
2023-06-19T18:39:13.709Z,56.64
2023-06-19T18:40:45.537Z,59.20
2023-06-19T18:42:18.780Z,60.43
2023-06-19T18:43:50.460Z,59.50
2023-06-19T18:45:22.130Z,59.64
2023-06-19T18:46:53.733Z,59.83
2023-06-19T18:48:26.167Z,59.57
2023-06-19T18:49:57.921Z,60.52
2023-06-19T18:51:29.602Z,61.11
2023-06-19T18:53:01.227Z,62.84
2023-06-19T18:54:33.116Z,62.85
2023-06-19T18:56:05.091Z,63.33
2023-06-19T18:57:38.141Z,64.02
2023-06-19T18:59:09.860Z,63.46
2023-06-19T19:00:41.575Z,63.66
2023-06-19T19:02:13.340Z,63.64
2023-06-19T19:03:45.091Z,64.92
2023-06-19T19:06:51.566Z,62.63
2023-06-19T19:08:23.996Z,61.83
2023-06-19T19:09:55.672Z,61.59
2023-06-19T19:11:27.384Z,60.58
2023-06-19T19:13:00.374Z,60.49
2023-06-19T19:14:31.963Z,60.52
2023-06-19T19:16:03.823Z,59.83
2023-06-19T19:17:36.121Z,59.89
2023-06-19T19:19:08.088Z,61.02
2023-06-19T19:20:39.791Z,61.46
2023-06-19T19:22:11.480Z,60.66
2023-06-19T19:23:43.107Z,61.32
2023-06-19T19:25:15.229Z,61.29
2023-06-19T19:26:47.001Z,61.66
2023-06-19T19:28:20.097Z,61.21
2023-06-19T19:29:51.880Z,61.77
2023-06-19T19:31:23.699Z,62.37
2023-06-19T19:32:55.592Z,62.33
2023-06-19T19:34:27.379Z,63.24
2023-06-19T19:35:59.071Z,64.26
2023-06-19T19:48:33.751Z,63.52
2023-06-19T19:50:06.953Z,64.17
2023-06-19T19:51:38.582Z,63.99
2023-06-19T19:53:10.254Z,63.39
2023-06-19T19:54:42.029Z,63.39
2023-06-19T19:56:13.806Z,64.16
2023-06-19T19:57:45.500Z,63.46
2023-06-19T19:59:17.551Z,64.21
2023-06-19T20:00:50.836Z,64.28
2023-06-19T20:02:22.795Z,63.63
2023-06-19T20:03:56.275Z,62.95
2023-06-19T20:05:28.067Z,63.27
2023-06-19T20:06:59.905Z,62.98
2023-06-19T20:08:31.986Z,62.77
2023-06-19T20:10:04.852Z,62.43
2023-06-19T20:11:36.830Z,61.68
2023-06-19T20:13:08.597Z,61.43